createdAt,value
2022-09-25T00:01:06.673Z,15.60
2022-09-25T00:04:13.958Z,15.50
2022-09-25T00:07:12.242Z,15.40
2022-09-25T00:10:11.244Z,15.40
2022-09-25T00:13:10.350Z,15.40
2022-09-25T00:16:12.548Z,15.40
2022-09-25T00:19:37.617Z,15.40
2022-09-25T00:22:36.631Z,15.40
2022-09-25T00:25:34.870Z,15.40
2022-09-25T00:28:33.863Z,15.40
2022-09-25T00:31:33.183Z,15.40
2022-09-25T00:34:32.661Z,15.40
2022-09-25T00:37:30.992Z,15.40
2022-09-25T00:40:29.600Z,15.40
2022-09-25T00:43:44.974Z,15.30
2022-09-25T00:46:45.484Z,15.30
2022-09-25T00:49:44.101Z,15.30
2022-09-25T00:52:44.001Z,15.30
2022-09-25T00:55:45.812Z,15.30
2022-09-25T00:58:44.681Z,15.30
2022-09-25T01:01:43.009Z,15.30
2022-09-25T01:04:46.679Z,15.30
2022-09-25T01:07:48.280Z,15.30
2022-09-25T01:10:47.230Z,15.30
2022-09-25T01:13:45.502Z,15.30
2022-09-25T01:16:53.960Z,15.50
2022-09-25T01:20:22.520Z,15.50
2022-09-25T01:24:00.876Z,15.60
2022-09-25T01:27:29.528Z,15.70
2022-09-25T01:30:31.247Z,15.70
2022-09-25T01:33:37.465Z,15.80
2022-09-25T01:36:42.317Z,15.90
2022-09-25T01:39:47.179Z,16.00
2022-09-25T01:42:53.761Z,16.10
2022-09-25T01:45:57.895Z,16.20
2022-09-25T01:49:02.431Z,16.30
2022-09-25T01:52:03.416Z,16.40
2022-09-25T01:55:21.884Z,16.50
2022-09-25T01:58:29.531Z,16.60
2022-09-25T02:01:32.898Z,16.70
2022-09-25T02:04:37.831Z,16.90
2022-09-25T02:07:42.737Z,16.90
2022-09-25T02:10:47.723Z,17.00
2022-09-25T02:14:08.176Z,17.20
2022-09-25T02:17:11.657Z,17.30
2022-09-25T02:20:26.339Z,17.50
2022-09-25T02:23:34.838Z,17.60
2022-09-25T02:26:36.163Z,17.80
2022-09-25T02:29:35.079Z,18.00
2022-09-25T02:32:34.514Z,18.20
2022-09-25T02:35:33.650Z,18.40
2022-09-25T02:38:34.154Z,18.50
2022-09-25T02:41:48.069Z,18.60
2022-09-25T02:45:17.278Z,18.80
2022-09-25T02:48:39.260Z,18.90
2022-09-25T02:51:58.452Z,19.00
2022-09-25T02:55:05.164Z,19.10
2022-09-25T02:58:27.296Z,19.20
2022-09-25T03:01:29.600Z,19.30
2022-09-25T03:04:30.124Z,19.50
2022-09-25T03:07:28.423Z,19.50
2022-09-25T03:10:28.700Z,19.60
2022-09-25T03:13:33.611Z,19.70
2022-09-25T03:16:42.493Z,19.80
2022-09-25T03:19:40.800Z,19.90
2022-09-25T03:22:40.187Z,19.90
2022-09-25T03:25:39.447Z,20.00
2022-09-25T03:28:38.233Z,20.10
2022-09-25T03:31:36.505Z,20.20
2022-09-25T03:34:35.213Z,20.30
2022-09-25T03:37:33.583Z,20.30
2022-09-25T03:40:32.723Z,20.40
2022-09-25T03:43:34.074Z,20.50
2022-09-25T03:46:35.013Z,20.60
2022-09-25T03:49:33.311Z,20.70
2022-09-25T03:52:32.461Z,20.80
2022-09-25T03:55:30.565Z,20.80
2022-09-25T03:58:29.893Z,20.90
2022-09-25T04:01:29.525Z,21.00
2022-09-25T04:04:28.333Z,21.10
2022-09-25T04:07:26.433Z,21.20
2022-09-25T04:10:25.205Z,21.30
2022-09-25T04:13:25.026Z,21.50
2022-09-25T04:16:23.892Z,21.50
2022-09-25T04:19:22.155Z,21.60
2022-09-25T04:22:20.906Z,21.70
2022-09-25T04:25:24.458Z,21.70
2022-09-25T04:28:23.820Z,21.90
2022-09-25T04:31:21.975Z,21.90
2022-09-25T04:34:20.651Z,22.00
2022-09-25T04:37:18.864Z,22.20
2022-09-25T04:40:17.904Z,22.20
2022-09-25T04:43:16.292Z,22.20
2022-09-25T04:46:21.014Z,22.20
2022-09-25T04:49:20.402Z,22.30
2022-09-25T04:52:20.497Z,22.30
2022-09-25T04:55:22.505Z,22.40
2022-09-25T04:58:21.826Z,22.50
2022-09-25T05:01:21.680Z,22.50
2022-09-25T05:04:20.790Z,22.60
2022-09-25T05:07:18.941Z,22.70
2022-09-25T05:10:17.685Z,22.70
2022-09-25T05:13:16.191Z,22.90
2022-09-25T05:16:15.080Z,22.90
2022-09-25T05:19:14.093Z,22.90
2022-09-25T05:22:12.867Z,23.00
2022-09-25T05:25:11.116Z,23.10
2022-09-25T05:28:10.789Z,23.20
2022-09-25T05:31:08.946Z,23.30
2022-09-25T05:34:09.669Z,23.40
2022-09-25T05:37:07.921Z,23.40
2022-09-25T05:40:07.351Z,23.40
2022-09-25T05:43:06.281Z,23.50
2022-09-25T05:46:05.709Z,23.50
2022-09-25T05:49:04.630Z,23.50
2022-09-25T05:52:03.480Z,23.50
2022-09-25T05:55:03.682Z,23.60
2022-09-25T05:58:04.441Z,23.70
2022-09-25T06:01:04.966Z,23.70
2022-09-25T06:04:03.803Z,23.80
2022-09-25T06:07:03.051Z,23.80
2022-09-25T06:10:02.482Z,23.80
2022-09-25T06:13:03.121Z,23.90
2022-09-25T06:16:02.771Z,23.90
2022-09-25T06:19:01.112Z,24.00
2022-09-25T06:21:59.943Z,24.00
2022-09-25T06:24:58.048Z,24.00
2022-09-25T06:27:58.564Z,24.10
2022-09-25T06:30:56.703Z,24.10
2022-09-25T06:33:55.420Z,24.20
2022-09-25T06:36:53.726Z,24.30
2022-09-25T06:39:52.391Z,24.40
2022-09-25T06:42:57.705Z,24.40
2022-09-25T06:45:59.582Z,24.40
2022-09-25T06:48:58.310Z,24.40
2022-09-25T06:51:57.428Z,24.50
2022-09-25T06:54:55.616Z,24.50
2022-09-25T06:57:54.357Z,24.50
2022-09-25T07:00:55.153Z,24.60
2022-09-25T07:03:54.019Z,24.70
2022-09-25T07:06:54.672Z,24.60
2022-09-25T07:09:53.638Z,24.70
2022-09-25T07:12:53.356Z,24.70
2022-09-25T07:15:54.297Z,24.70
2022-09-25T07:18:55.181Z,24.70
2022-09-25T07:21:55.770Z,24.80
2022-09-25T07:24:53.882Z,24.80
2022-09-25T07:27:52.556Z,24.90
2022-09-25T07:30:50.798Z,25.00
2022-09-25T07:33:49.906Z,25.10
2022-09-25T07:36:48.120Z,25.10
2022-09-25T07:39:46.933Z,25.10
2022-09-25T07:42:45.055Z,25.10
2022-09-25T07:45:54.225Z,25.20
2022-09-25T07:48:52.980Z,25.20
2022-09-25T07:51:52.839Z,25.20
2022-09-25T07:54:50.987Z,25.20
2022-09-25T07:57:51.097Z,25.30
2022-09-25T08:00:49.264Z,25.30
2022-09-25T08:03:49.906Z,25.30
2022-09-25T08:06:48.035Z,25.30
2022-09-25T08:09:46.708Z,25.40
2022-09-25T08:12:45.096Z,25.50
2022-09-25T08:15:43.843Z,25.50
2022-09-25T08:18:44.381Z,25.50
2022-09-25T08:21:43.041Z,25.50
2022-09-25T08:24:41.324Z,25.50
2022-09-25T08:27:41.517Z,25.60
2022-09-25T08:30:39.718Z,25.70
2022-09-25T08:33:38.449Z,25.70
2022-09-25T08:36:36.875Z,25.60
2022-09-25T08:39:35.549Z,25.70
2022-09-25T08:42:37.711Z,25.70
2022-09-25T08:45:57.777Z,25.70
2022-09-25T08:49:06.997Z,25.70
2022-09-25T08:52:12.485Z,25.70
2022-09-25T08:55:50.604Z,25.70
2022-09-25T08:58:55.470Z,25.70
2022-09-25T09:01:58.640Z,25.70
2022-09-25T09:05:01.961Z,25.70
2022-09-25T09:08:12.740Z,25.70
2022-09-25T09:11:22.669Z,25.80
2022-09-25T09:14:23.109Z,25.80
2022-09-25T09:17:27.730Z,25.70
2022-09-25T09:20:38.330Z,25.80
2022-09-25T09:23:59.009Z,25.70
2022-09-25T09:27:19.031Z,25.80
2022-09-25T09:30:22.854Z,25.80
2022-09-25T09:33:38.969Z,25.80
2022-09-25T09:36:47.250Z,25.80
2022-09-25T09:40:16.069Z,25.90
2022-09-25T09:43:43.713Z,25.90
2022-09-25T09:47:12.513Z,26.00
2022-09-25T09:50:44.539Z,26.00
2022-09-25T09:53:54.584Z,26.00
2022-09-25T09:56:55.905Z,26.00
2022-09-25T10:00:06.010Z,26.00
2022-09-25T10:03:14.759Z,25.90
2022-09-25T10:06:20.456Z,25.90
2022-09-25T10:09:21.111Z,26.00
2022-09-25T10:12:29.580Z,26.00
2022-09-25T10:15:34.543Z,26.00
2022-09-25T10:18:41.325Z,26.00
2022-09-25T10:21:42.924Z,26.00
2022-09-25T10:24:53.120Z,26.00
2022-09-25T10:27:52.402Z,25.90
2022-09-25T10:30:52.819Z,25.90
2022-09-25T10:34:22.816Z,25.90
2022-09-25T10:37:23.574Z,25.80
2022-09-25T10:40:36.467Z,25.80
2022-09-25T10:43:35.009Z,25.80
2022-09-25T10:46:50.974Z,25.80
2022-09-25T10:50:04.682Z,25.70
2022-09-25T10:53:05.465Z,25.70
2022-09-25T10:56:09.785Z,25.70
2022-09-25T10:59:19.277Z,25.70
2022-09-25T11:02:33.021Z,25.70
2022-09-25T11:05:34.312Z,25.70
2022-09-25T11:08:38.367Z,25.70
2022-09-25T11:11:39.795Z,25.70
2022-09-25T11:14:51.717Z,25.60
2022-09-25T11:17:56.908Z,25.60
2022-09-25T11:21:03.607Z,25.50
2022-09-25T11:24:20.725Z,25.50
2022-09-25T11:27:38.086Z,25.40
2022-09-25T11:30:50.357Z,25.40
2022-09-25T11:34:07.875Z,25.30
2022-09-25T11:37:30.690Z,25.30
2022-09-25T11:41:08.211Z,25.30
2022-09-25T11:44:28.094Z,25.20
2022-09-25T11:47:40.996Z,25.20
2022-09-25T11:50:53.588Z,25.20
2022-09-25T11:54:37.546Z,25.10
2022-09-25T11:58:05.286Z,25.10
2022-09-25T12:01:23.963Z,25.00
2022-09-25T12:04:42.723Z,24.90
2022-09-25T12:08:06.367Z,24.90
2022-09-25T12:11:25.261Z,24.80
2022-09-25T12:14:35.727Z,24.70
2022-09-25T12:17:57.143Z,24.70
2022-09-25T12:21:15.628Z,24.50
2022-09-25T12:24:40.679Z,24.40
2022-09-25T12:28:02.708Z,24.30
2022-09-25T12:31:27.838Z,24.20
2022-09-25T12:34:52.955Z,24.00
2022-09-25T12:37:57.175Z,23.90
2022-09-25T12:41:24.997Z,23.70
2022-09-25T12:44:35.552Z,23.50
2022-09-25T12:47:43.732Z,23.20
2022-09-25T12:50:53.390Z,22.90
2022-09-25T12:53:59.536Z,22.60
2022-09-25T12:57:02.627Z,22.30
2022-09-25T13:00:21.837Z,22.10
2022-09-25T13:03:55.741Z,21.60
2022-09-25T13:07:04.424Z,21.60
2022-09-25T13:10:18.042Z,21.40
2022-09-25T13:13:21.690Z,21.20
2022-09-25T13:16:22.624Z,21.10
2022-09-25T13:19:33.473Z,20.90
2022-09-25T13:22:35.529Z,20.60
2022-09-25T13:26:00.179Z,20.50
2022-09-25T13:29:04.872Z,20.30
2022-09-25T13:32:07.196Z,20.10
2022-09-25T13:35:19.582Z,20.00
2022-09-25T13:38:39.522Z,19.90
2022-09-25T13:41:49.136Z,19.90
2022-09-25T13:44:51.363Z,19.70
2022-09-25T13:47:55.844Z,19.60
2022-09-25T13:51:33.652Z,19.50
2022-09-25T13:54:34.351Z,19.50
2022-09-25T13:58:02.975Z,19.40
2022-09-25T14:01:03.450Z,19.30
2022-09-25T14:04:08.360Z,19.20
2022-09-25T14:07:20.775Z,19.10
2022-09-25T14:10:19.599Z,19.10
2022-09-25T14:13:25.716Z,19.00
2022-09-25T14:16:35.460Z,19.00
2022-09-25T14:19:39.918Z,18.90
2022-09-25T14:22:44.990Z,18.90
2022-09-25T14:25:47.281Z,18.80
2022-09-25T14:28:47.016Z,18.80
2022-09-25T14:32:21.251Z,18.70
2022-09-25T14:36:00.521Z,18.70
2022-09-25T14:39:21.555Z,18.70
2022-09-25T14:42:54.445Z,18.60
2022-09-25T14:46:02.357Z,18.60
2022-09-25T14:49:16.405Z,18.60
2022-09-25T14:52:22.329Z,18.50
2022-09-25T14:55:25.187Z,18.50
2022-09-25T14:58:28.828Z,18.50
2022-09-25T15:01:30.031Z,18.40
2022-09-25T15:04:33.406Z,18.40
2022-09-25T15:07:32.467Z,18.40
2022-09-25T15:10:35.329Z,18.40
2022-09-25T15:13:34.080Z,18.30
2022-09-25T15:16:48.744Z,18.30
2022-09-25T15:19:47.707Z,18.30
2022-09-25T15:22:54.979Z,18.30
2022-09-25T15:25:56.323Z,18.30
2022-09-25T15:28:55.268Z,18.30
2022-09-25T15:31:53.497Z,18.30
2022-09-25T15:35:05.247Z,18.30
2022-09-25T15:38:18.922Z,18.20
2022-09-25T15:41:17.829Z,18.20
2022-09-25T15:44:22.736Z,18.20
2022-09-25T15:47:48.830Z,18.10
2022-09-25T15:50:47.441Z,18.10
2022-09-25T15:53:53.013Z,18.10
2022-09-25T15:56:55.685Z,18.10
2022-09-25T16:00:10.351Z,18.00
2022-09-25T16:03:38.877Z,18.00
2022-09-25T16:06:40.962Z,18.00
2022-09-25T16:09:39.166Z,18.00
2022-09-25T16:12:49.773Z,17.90
2022-09-25T16:15:52.915Z,18.00
2022-09-25T16:18:54.443Z,18.00
2022-09-25T16:21:53.294Z,17.90
2022-09-25T16:24:53.522Z,17.90
2022-09-25T16:27:52.797Z,17.90
2022-09-25T16:31:01.443Z,17.90
2022-09-25T16:34:01.592Z,17.90
2022-09-25T16:37:03.767Z,17.90
2022-09-25T16:40:29.312Z,17.90
2022-09-25T16:43:28.563Z,17.80
2022-09-25T16:46:26.951Z,17.80
2022-09-25T16:49:25.746Z,17.80
2022-09-25T16:52:32.554Z,17.80
2022-09-25T16:55:31.327Z,17.80
2022-09-25T16:58:29.508Z,17.70
2022-09-25T17:01:29.485Z,17.80
2022-09-25T17:04:30.297Z,17.70
2022-09-25T17:07:29.405Z,17.70
2022-09-25T17:10:32.552Z,17.70
2022-09-25T17:13:31.557Z,17.70
2022-09-25T17:16:30.017Z,17.60
2022-09-25T17:19:28.966Z,17.60
2022-09-25T17:22:30.584Z,17.60
2022-09-25T17:25:48.233Z,17.50
2022-09-25T17:28:46.507Z,17.50
2022-09-25T17:31:45.327Z,17.50
2022-09-25T17:34:45.843Z,17.50
2022-09-25T17:37:44.552Z,17.60
2022-09-25T17:40:45.928Z,17.50
2022-09-25T17:43:45.258Z,17.50
2022-09-25T17:46:44.249Z,17.40
2022-09-25T17:49:43.006Z,17.40
2022-09-25T17:52:41.129Z,17.40
2022-09-25T17:55:40.494Z,17.40
2022-09-25T17:58:39.298Z,17.40
2022-09-25T18:01:39.957Z,17.30
2022-09-25T18:04:38.622Z,17.20
2022-09-25T18:07:37.290Z,17.20
2022-09-25T18:10:37.256Z,17.20
2022-09-25T18:13:41.325Z,17.10
2022-09-25T18:16:42.311Z,17.00
2022-09-25T18:19:56.644Z,17.00
2022-09-25T18:22:54.961Z,17.00
2022-09-25T18:25:54.977Z,16.90
2022-09-25T18:28:53.240Z,16.90
2022-09-25T18:31:52.383Z,16.90
2022-09-25T18:34:51.083Z,16.90
2022-09-25T18:37:50.133Z,16.90
2022-09-25T18:40:48.335Z,16.90
2022-09-25T18:43:47.038Z,16.90
2022-09-25T18:46:45.304Z,16.90
2022-09-25T18:49:44.257Z,16.90
2022-09-25T18:52:42.729Z,16.90
2022-09-25T18:55:42.965Z,16.90
2022-09-25T18:58:41.148Z,17.00
2022-09-25T19:01:40.798Z,16.90
2022-09-25T19:04:39.688Z,16.90
2022-09-25T19:07:39.361Z,16.90
2022-09-25T19:10:38.052Z,16.90
2022-09-25T19:13:36.683Z,16.90
2022-09-25T19:16:38.319Z,16.90
2022-09-25T19:19:39.622Z,16.80
2022-09-25T19:22:37.830Z,16.80
2022-09-25T19:25:36.483Z,16.70
2022-09-25T19:28:36.101Z,16.60
2022-09-25T19:31:34.805Z,16.60
2022-09-25T19:34:33.473Z,16.60
2022-09-25T19:37:33.402Z,16.50
2022-09-25T19:40:39.525Z,16.50
2022-09-25T19:43:38.571Z,16.50
2022-09-25T19:46:37.194Z,16.50
2022-09-25T19:49:35.903Z,16.40
2022-09-25T19:52:34.039Z,16.40
2022-09-25T19:55:37.860Z,16.40
2022-09-25T19:58:38.744Z,16.30
2022-09-25T20:01:38.773Z,16.30
2022-09-25T20:04:37.250Z,16.40
2022-09-25T20:07:35.920Z,16.30
2022-09-25T20:10:35.926Z,16.30
2022-09-25T20:13:34.557Z,16.30
2022-09-25T20:16:32.995Z,16.40
2022-09-25T20:19:31.698Z,16.40
2022-09-25T20:22:31.876Z,16.40
2022-09-25T20:25:30.546Z,16.50
2022-09-25T20:28:28.653Z,16.50
2022-09-25T20:31:29.074Z,16.40
2022-09-25T20:34:27.272Z,16.40
2022-09-25T20:37:26.403Z,16.40
2022-09-25T20:40:24.623Z,16.40
2022-09-25T20:43:23.425Z,16.30
2022-09-25T20:46:22.349Z,16.30
2022-09-25T20:49:23.930Z,16.20
2022-09-25T20:52:22.056Z,16.20
2022-09-25T20:55:20.729Z,16.20
2022-09-25T20:58:28.326Z,16.20
2022-09-25T21:01:30.270Z,16.20
2022-09-25T21:04:28.973Z,16.20
2022-09-25T21:07:27.821Z,16.20
2022-09-25T21:10:26.107Z,16.20
2022-09-25T21:13:27.641Z,16.30
2022-09-25T21:16:27.791Z,16.30
2022-09-25T21:19:28.500Z,16.20
2022-09-25T21:22:26.659Z,16.20
2022-09-25T21:25:27.360Z,16.20
2022-09-25T21:28:25.510Z,16.30
2022-09-25T21:31:29.191Z,16.30
2022-09-25T21:34:27.538Z,16.40
2022-09-25T21:37:26.224Z,16.40
2022-09-25T21:40:24.520Z,16.50
2022-09-25T21:43:23.086Z,16.50
2022-09-25T21:46:21.888Z,16.50
2022-09-25T21:49:22.451Z,16.50
2022-09-25T21:52:20.543Z,16.50
2022-09-25T21:55:19.842Z,16.50
2022-09-25T21:58:18.068Z,16.50
2022-09-25T22:01:19.464Z,16.50
2022-09-25T22:04:17.673Z,16.50
2022-09-25T22:07:16.379Z,16.50
2022-09-25T22:10:14.525Z,16.50
2022-09-25T22:13:13.177Z,16.50
2022-09-25T22:16:16.678Z,16.50
2022-09-25T22:19:24.356Z,16.50
2022-09-25T22:22:22.466Z,16.50
2022-09-25T22:25:21.178Z,16.50
2022-09-25T22:28:21.061Z,16.50
2022-09-25T22:31:25.786Z,16.50
2022-09-25T22:34:26.868Z,16.40
2022-09-25T22:37:25.537Z,16.50
2022-09-25T22:40:23.756Z,16.40
2022-09-25T22:43:22.707Z,16.40
2022-09-25T22:46:22.414Z,16.40
2022-09-25T22:49:21.460Z,16.40
2022-09-25T22:52:19.621Z,16.30
2022-09-25T22:55:18.453Z,16.30
2022-09-25T22:58:18.034Z,16.30
2022-09-25T23:01:21.338Z,16.30
2022-09-25T23:04:24.104Z,16.40
2022-09-25T23:07:23.872Z,16.50
2022-09-25T23:10:22.008Z,16.50
2022-09-25T23:13:20.672Z,16.50
2022-09-25T23:16:18.944Z,16.50
2022-09-25T23:19:18.488Z,16.50
2022-09-25T23:22:16.605Z,16.40
2022-09-25T23:25:15.336Z,16.30
2022-09-25T23:28:14.581Z,16.30
2022-09-25T23:31:15.819Z,16.20
2022-09-25T23:34:15.197Z,16.20
2022-09-25T23:37:15.132Z,16.10
2022-09-25T23:40:15.678Z,16.10
2022-09-25T23:43:15.807Z,16.10
2022-09-25T23:46:15.971Z,16.00
2022-09-25T23:49:15.388Z,16.00
2022-09-25T23:52:13.835Z,16.00
2022-09-25T23:55:12.517Z,15.90
2022-09-25T23:58:11.376Z,15.90
